Create Custom Reports and Graphics: Custom Report

Modesto Jr College

Current Conditions

6/16/21 12:00 PM (-07:00)
Updated Every 15 Minutes
Temp 84.6 °F   7.1
RH 29 %   0
Dew Pt 49.1 °F   5.7
Wind Spd 5.1 mph
Wind Dir W | 277 °
Wind Gust 11.0 mph   6.8
Latest Rain 0.00 In
Daily Rain 0.00 In
Daily Min Temp 58.0 °F   2.0
Daily Max Temp 85.2 °F   7.0

Last 24 Hours

Modesto Jr College

15 Minute Data | America/Los_Angeles
as of 6/16/21 12:10 PM PDT
Date & Time Temp (°F) RH (%) Dew Pt (°F) Wind Spd (mph) Wind Dir (°) Wind Gust (mph) Latest Rain (In) Daily Rain (In) Daily Min Temp (°F) Daily Max Temp (°F)
6/16/21 - 1200 84.6 29 49.1 5.1 W | 277 11.0 0.00 0.00 58.0 85.2
6/16/21 - 1145 83.3 31 49.2 7.2 WNW | 288 12.3 0.00 0.00 58.0 84.0
6/16/21 - 1130 82.6 32 49.6 7.0 W | 281 13.2 0.00 0.00 58.0 83.7
6/16/21 - 1115 81.4 32 48.8 6.6 WNW | 289 11.8 0.00 0.00 58.0 82.1
6/16/21 - 1100 79.9 33 48.2 7.5 WNW | 298 13.2 0.00 0.00 58.0 80.8
6/16/21 - 1045 79.9 33 48.1 7.3 WNW | 293 13.2 0.00 0.00 58.0 80.3
6/16/21 - 1030 79.2 32 47.0 8.1 WNW | 294 15.3 0.00 0.00 58.0 79.8
6/16/21 - 1015 79.3 30 45.6 8.0 WNW | 282 14.9 0.00 0.00 58.0 79.6
6/16/21 - 1000 78.4 31 45.4 8.1 WNW | 286 12.7 0.00 0.00 58.0 79.0
6/16/21 - 0945 77.9 34 47.0 7.1 WNW | 294 10.7 0.00 0.00 58.0 78.5
6/16/21 - 0930 77.2 35 47.3 6.0 WNW | 293 11.0 0.00 0.00 58.0 77.8
6/16/21 - 0915 76.2 36 47.5 6.5 WNW | 288 11.6 0.00 0.00 58.0 77.0
6/16/21 - 0900 74.5 39 48.0 7.4 WNW | 297 12.9 0.00 0.00 58.0 75.2
6/16/21 - 0845 74.0 40 48.5 7.4 WNW | 300 12.9 0.00 0.00 58.0 74.5
6/16/21 - 0830 72.9 45 50.3 6.0 WNW | 296 11.6 0.00 0.00 58.0 74.1
6/16/21 - 0815 70.4 50 50.9 5.7 WNW | 296 10.3 0.00 0.00 58.0 72.0
6/16/21 - 0800 69.2 52 50.7 5.8 WNW | 294 9.2 0.00 0.00 58.0 69.8
6/16/21 - 0745 68.5 52 50.4 5.7 WNW | 295 11.0 0.00 0.00 58.0 69.0
6/16/21 - 0730 66.1 60 52.0 3.2 NW | 317 7.9 0.00 0.00 58.0 67.9
6/16/21 - 0715 64.4 64 51.8 3.2 NNW | 332 5.9 0.00 0.00 58.0 66.1
6/16/21 - 0700 63.2 65 51.4 3.2 N | 350 4.8 0.00 0.00 58.0 66.1
6/16/21 - 0645 61.9 68 51.2 2.8 NNW | 348 4.8 0.00 0.00 58.0 66.1
6/16/21 - 0630 60.8 70 50.9 2.4 N | 349 4.2 0.00 0.00 58.0 66.1
6/16/21 - 0615 59.6 72 50.5 2.5 N | 355 4.4 0.00 0.00 58.0 66.1
6/16/21 - 0600 58.4 74 50.1 3.1 NNW | 340 6.4 0.00 0.00 58.0 66.1
6/16/21 - 0545 58.7 73 50.2 3.1 N | 6 5.3 0.00 0.00 58.4 66.1
6/16/21 - 0530 58.8 72 50.0 3.1 NNE | 17 5.7 0.00 0.00 58.5 66.1
6/16/21 - 0515 59.1 72 49.9 3.5 N | 355 5.0 0.00 0.00 58.5 66.1
6/16/21 - 0500 59.6 69 49.3 2.5 N | 8 4.2 0.00 0.00 59.3 66.1
6/16/21 - 0445 60.2 67 49.1 2.2 NNE | 12 3.3 0.00 0.00 59.7 66.1
6/16/21 - 0430 60.8 65 48.9 2.4 N | 6 3.5 0.00 0.00 60.5 66.1
6/16/21 - 0415 61.6 63 48.7 1.9 N | 5 3.3 0.00 0.00 61.0 66.1
6/16/21 - 0400 61.9 60 47.7 2.4 N | 349 4.8 0.00 0.00 61.5 66.1
6/16/21 - 0345 62.8 55 46.5 2.3 NNW | 332 4.4 0.00 0.00 62.1 66.1
6/16/21 - 0330 63.3 52 45.4 2.5 NW | 308 3.9 0.00 0.00 63.0 66.1
6/16/21 - 0315 63.4 53 46.0 2.6 NW | 312 5.3 0.00 0.00 63.2 66.1
6/16/21 - 0300 63.4 53 46.2 3.2 NW | 308 5.0 0.00 0.00 63.2 66.1
6/16/21 - 0245 63.6 54 46.6 3.3 NW | 308 6.1 0.00 0.00 63.3 66.1
6/16/21 - 0230 63.8 54 47.1 3.5 NW | 307 6.4 0.00 0.00 63.5 66.1
6/16/21 - 0215 64.2 54 47.0 3.3 WNW | 300 6.6 0.00 0.00 63.7 66.1
6/16/21 - 0200 65.2 51 46.8 3.6 WNW | 293 7.2 0.00 0.00 64.8 66.1
6/16/21 - 0145 65.7 50 46.8 4.8 WNW | 295 8.6 0.00 0.00 65.1 66.1
6/16/21 - 0130 65.4 51 47.0 4.6 WNW | 297 8.1 0.00 0.00 65.1 66.1
6/16/21 - 0115 65.7 51 47.2 4.1 WNW | 296 7.7 0.00 0.00 65.4 66.1
6/16/21 - 0100 66.0 50 47.2 4.1 WNW | 300 7.2 0.00 0.00 56.0 86.3
6/16/21 - 0045 66.3 50 47.3 4.0 NW | 308 6.8 0.00 0.00 56.0 86.3
6/16/21 - 0030 66.6 50 47.4 4.2 NW | 308 7.7 0.00 0.00 56.0 86.3
6/16/21 - 0015 66.8 50 47.6 3.6 WNW | 303 6.1 0.00 0.00 56.0 86.3
6/16/21 - 0000 67.3 49 47.7 3.6 WNW | 303 7.0 0.00 0.00 56.0 86.3
6/15/21 - 2345 67.3 50 47.9 4.0 NW | 306 6.6 0.00 0.00 56.0 86.3
6/15/21 - 2330 67.8 49 48.1 3.7 NW | 304 6.8 0.00 0.00 56.0 86.3
6/15/21 - 2315 68.1 49 48.4 3.7 NW | 305 6.4 0.00 0.00 56.0 86.3
6/15/21 - 2300 68.5 49 48.8 3.6 NW | 304 5.9 0.00 0.00 56.0 86.3
6/15/21 - 2245 69.1 49 48.9 3.8 NW | 307 6.1 0.00 0.00 56.0 86.3
6/15/21 - 2230 70.5 46 48.9 4.4 NW | 305 8.6 0.00 0.00 56.0 86.3
6/15/21 - 2215 71.0 46 48.9 5.8 WNW | 297 9.6 0.00 0.00 56.0 86.3
6/15/21 - 2200 71.1 45 48.9 5.1 WNW | 296 8.3 0.00 0.00 56.0 86.3
6/15/21 - 2145 71.7 44 48.5 5.2 WNW | 295 8.8 0.00 0.00 56.0 86.3
6/15/21 - 2130 72.0 41 47.0 4.6 WNW | 295 7.9 0.00 0.00 56.0 86.3
6/15/21 - 2115 71.5 40 46.1 4.6 WNW | 293 7.5 0.00 0.00 56.0 86.3
6/15/21 - 2100 71.6 39 45.6 3.3 WNW | 293 5.7 0.00 0.00 56.0 86.3
6/15/21 - 2045 73.3 36 44.7 2.8 WNW | 291 5.7 0.00 0.00 56.0 86.3
6/15/21 - 2030 75.4 31 42.9 3.6 WNW | 285 6.4 0.00 0.00 56.0 86.3
6/15/21 - 2015 76.8 30 43.4 2.5 WNW | 302 4.4 0.00 0.00 56.0 86.3
6/15/21 - 2000 78.2 31 44.9 2.5 NW | 309 4.2 0.00 0.00 56.0 86.3
6/15/21 - 1945 80.9 25 42.0 2.6 W | 278 4.4 0.00 0.00 56.0 86.3
6/15/21 - 1930 82.3 22 39.7 3.4 W | 278 6.4 0.00 0.00 56.0 86.3
6/15/21 - 1915 82.9 22 40.2 3.7 NW | 304 8.1 0.00 0.00 56.0 86.3
6/15/21 - 1900 83.5 20 37.9 6.0 WNW | 303 11.8 0.00 0.00 56.0 86.3
6/15/21 - 1845 83.9 17 34.9 8.6 WNW | 291 14.7 0.00 0.00 56.0 86.3
6/15/21 - 1830 84.2 18 36.0 8.4 WNW | 293 14.9 0.00 0.00 56.0 86.3
6/15/21 - 1815 84.5 18 36.0 9.8 WNW | 294 17.8 0.00 0.00 56.0 86.3
6/15/21 - 1800 84.8 18 36.6 8.4 WNW | 297 15.3 0.00 0.00 56.0 86.3
6/15/21 - 1745 85.0 18 36.8 9.7 WNW | 294 17.1 0.00 0.00 56.0 86.3
6/15/21 - 1730 85.5 18 37.2 10.8 WNW | 290 19.5 0.00 0.00 56.0 86.3
6/15/21 - 1715 85.7 18 36.8 9.2 WNW | 291 17.8 0.00 0.00 56.0 86.3
6/15/21 - 1700 85.8 18 37.5 9.6 WNW | 300 16.2 0.00 0.00 56.0 86.3
6/15/21 - 1645 85.7 18 37.2 9.2 WNW | 303 16.2 0.00 0.00 56.0 86.3
6/15/21 - 1630 85.9 18 38.1 8.8 NW | 306 15.8 0.00 0.00 56.0 86.3
6/15/21 - 1615 85.7 18 37.4 8.8 WNW | 298 14.0 0.00 0.00 56.0 86.1
6/15/21 - 1600 85.3 20 39.1 9.7 NW | 306 16.0 0.00 0.00 56.0 85.7
6/15/21 - 1545 84.9 21 40.6 9.9 NW | 314 17.3 0.00 0.00 56.0 85.2
6/15/21 - 1530 84.7 23 42.4 9.7 NW | 316 18.6 0.00 0.00 56.0 85.1
6/15/21 - 1515 84.5 23 42.5 9.2 NW | 304 16.7 0.00 0.00 56.0 85.0
6/15/21 - 1500 83.8 25 43.9 9.1 NW | 314 16.7 0.00 0.00 56.0 84.5
6/15/21 - 1445 83.3 23 41.7 9.8 WNW | 300 17.5 0.00 0.00 56.0 83.8
6/15/21 - 1430 82.4 24 42.2 10.7 NW | 312 16.9 0.00 0.00 56.0 83.2
6/15/21 - 1415 82.2 25 42.6 10.1 NW | 322 18.8 0.00 0.00 56.0 83.2
6/15/21 - 1400 82.2 25 42.6 9.1 NW | 305 17.5 0.00 0.00 56.0 82.8
6/15/21 - 1345 81.8 24 41.0 9.5 WNW | 298 17.8 0.00 0.00 56.0 82.4
6/15/21 - 1330 80.9 24 40.9 9.5 NW | 305 20.0 0.00 0.00 56.0 81.7
6/15/21 - 1315 80.2 24 39.6 10.8 WNW | 300 18.0 0.00 0.00 56.0 81.0
6/15/21 - 1300 79.9 25 40.6 10.4 NW | 305 18.0 0.00 0.00 56.0 80.3
6/15/21 - 1245 79.2 27 41.9 9.9 WNW | 302 19.7 0.00 0.00 56.0 79.8
6/15/21 - 1230 78.6 27 42.1 10.3 WNW | 303 18.8 0.00 0.00 56.0 79.0
6/15/21 - 1215 77.9 29 43.3 10.9 WNW | 299 21.0 0.00 0.00 56.0 78.6
6/15/21 - 1200 77.5 30 43.4 11.0 WNW | 299 17.8 0.00 0.00 56.0 78.2
Max 85.9 74 52.0 11.0 - 21.0 0.00 0.00 65.4 86.3
Avg 73.6 40 45.4 5.9 - 10.5 0.00 - - -
Min 58.4 17 34.9 1.9 - 3.3 0.00 0.00 56.0 66.1
Total - - - - - - 0.00 - - -

Last 7 Days

Modesto Jr College

Daily Data | America/Los_Angeles
as of 6/16/21 12:10 PM PDT
Date Daily ETo (in)
6/15/21 0.280
6/14/21 0.248
6/13/21 0.260
6/12/21 0.249
6/11/21 0.248
6/10/21 0.244
6/9/21 0.229
Max 0.280
Min 0.229